Etusivu
METAR-TAF:

METAR-TAF

Lentoasemat :

Karachi, Pakistan

Leveyspiiri: 24-54N, Pituuspiiri: 067-08E, korkeus merenpinnasta: 21 m

Tämänhetkinen sää

Tämä raportti tehtiin 17 minuuttia sitten, kello 09.25 UTC
Tuuli 6 kn pohjoisesta/koillisesta
Lämpötila 35°C
Kosteus 13%
Ilmanpaine 1013 hPa
Näkyvyys: 7000 m

METAR: OPKC 190925Z 03006KT 7000 NSC 35/03 Q1013 NOSIG

Aika: 14:42 (09:42 UTC)

Sääennuste

Tämä raportti tehtiin 3 tuntia ja 12 minuuttia sitten, kello 06.30 UTC
Ennuste voimassa 19. päivästä klo 09 UTC - 19. päivään klo 18 UTC
Tuuli 5 kn idästä/koillisesta puuskistuen 15 kn:hen
Näkyvyys: 6000 m

TAF: OPKC 190630Z 1909/1918 07005G15KT 6000 NSC

Säähavainnot ja -ennusteet yli 4000 lentoasemalta (METAR- ja TAF-raportit).

Käytössä olevat sääasemat on merkitty karttaan keltaisilla ja punaisilla pisteillä.

Aseta hiiri pisteen päälle nähdäksesi sääaseman nimen.

Klikkaa sitten nähdäksesi säähavainnot ja -ennusteet.

Kartan vaihtaminen: klikkaa mustalla rastilla varustettuja vihreitä pisteitä, niin voit zoomata sisään; viivalla varustettua vihreää pistettä, niin voit zoomata ulos tai vihreitä nuolia, niin pääset viereisille kartoille.


METAR-TAF: